createdAt,value
2017-12-03T00:00:54.118Z,973.09
2017-12-03T00:01:54.109Z,973.07
2017-12-03T00:02:54.097Z,973.08
2017-12-03T00:03:54.087Z,973.13
2017-12-03T00:04:54.073Z,973.12
2017-12-03T00:05:54.062Z,973.12
2017-12-03T00:06:54.052Z,973.14
2017-12-03T00:07:54.041Z,973.14
2017-12-03T00:08:54.030Z,973.14
2017-12-03T00:09:54.019Z,973.16
2017-12-03T00:10:54.008Z,973.13
2017-12-03T00:11:54.096Z,973.11
2017-12-03T00:12:53.986Z,973.09
2017-12-03T00:13:53.975Z,973.12
2017-12-03T00:14:53.965Z,973.11
2017-12-03T00:15:53.953Z,973.12
2017-12-03T00:16:53.942Z,973.11
2017-12-03T00:17:54.030Z,973.15
2017-12-03T00:18:53.919Z,973.12
2017-12-03T00:19:53.908Z,973.11
2017-12-03T00:20:53.896Z,973.1
2017-12-03T00:21:53.886Z,973.12
2017-12-03T00:22:53.874Z,973.1
2017-12-03T00:23:53.968Z,973.11
2017-12-03T00:24:53.853Z,973.16
2017-12-03T00:25:53.841Z,973.15
2017-12-03T00:26:53.829Z,973.15
2017-12-03T00:27:53.821Z,973.15
2017-12-03T00:28:53.808Z,973.14
2017-12-03T00:29:53.797Z,973.12
2017-12-03T00:30:53.785Z,973.1
2017-12-03T00:31:53.776Z,973.14
2017-12-03T00:32:53.764Z,973.09
2017-12-03T00:33:53.751Z,973.08
2017-12-03T00:34:53.741Z,973.08
2017-12-03T00:35:53.730Z,973.07
2017-12-03T00:36:53.719Z,973.05
2017-12-03T00:37:53.707Z,973.05
2017-12-03T00:38:53.846Z,973.07
2017-12-03T00:39:53.686Z,973.13
2017-12-03T00:40:53.674Z,973.07
2017-12-03T00:41:53.663Z,973.13
2017-12-03T00:42:53.652Z,973.1
2017-12-03T00:43:53.643Z,973.12
2017-12-03T00:44:53.629Z,973.11
2017-12-03T00:45:53.621Z,973.1
2017-12-03T00:46:53.608Z,973.09
2017-12-03T00:47:53.597Z,973.09
2017-12-03T00:48:53.585Z,973.07
2017-12-03T00:49:53.574Z,973.04
2017-12-03T00:50:53.563Z,973.02
2017-12-03T00:51:53.554Z,972.99
2017-12-03T00:52:53.544Z,973.01
2017-12-03T00:53:53.632Z,973.01
2017-12-03T00:54:53.519Z,973
2017-12-03T00:55:53.507Z,973.02
2017-12-03T00:56:53.496Z,973.05
2017-12-03T00:57:53.485Z,973
2017-12-03T00:58:53.474Z,973.03
2017-12-03T00:59:53.463Z,973.03
2017-12-03T01:00:53.453Z,973.06
2017-12-03T01:01:53.447Z,973.09
2017-12-03T01:02:53.429Z,973.07
2017-12-03T01:03:53.419Z,973.06
2017-12-03T01:04:53.406Z,973.09
2017-12-03T01:05:53.396Z,973.05
2017-12-03T01:06:53.385Z,973.07
2017-12-03T01:07:53.375Z,973.05
2017-12-03T01:08:53.369Z,973.04
2017-12-03T01:09:53.453Z,973.06
2017-12-03T01:10:53.340Z,973.05
2017-12-03T01:11:53.330Z,973.07
2017-12-03T01:12:53.319Z,973.05
2017-12-03T01:13:53.306Z,973.05
2017-12-03T01:14:53.296Z,973.06
2017-12-03T01:15:53.285Z,973
2017-12-03T01:16:53.374Z,973.01
2017-12-03T01:17:53.263Z,973.03
2017-12-03T01:18:53.253Z,973.05
2017-12-03T01:19:53.241Z,973.07
2017-12-03T01:20:53.229Z,973.07
2017-12-03T01:21:53.219Z,973.07
2017-12-03T01:22:53.208Z,973.1
2017-12-03T01:23:53.196Z,973.13
2017-12-03T01:24:53.185Z,973.14
2017-12-03T01:25:53.173Z,973.17
2017-12-03T01:26:53.163Z,973.19
2017-12-03T01:27:53.153Z,973.2
2017-12-03T01:28:53.141Z,973.19
2017-12-03T01:29:53.129Z,973.2
2017-12-03T01:30:53.120Z,973.21
2017-12-03T01:31:53.108Z,973.17
2017-12-03T01:32:53.096Z,973.17
2017-12-03T01:33:53.088Z,973.19
2017-12-03T01:34:53.073Z,973.18
2017-12-03T01:35:53.061Z,973.2
2017-12-03T01:36:53.050Z,973.19
2017-12-03T01:37:53.039Z,973.2
2017-12-03T01:38:53.030Z,973.19
2017-12-03T01:39:53.016Z,973.18
2017-12-03T01:40:53.005Z,973.24
2017-12-03T01:41:52.994Z,973.24
2017-12-03T01:42:52.984Z,973.24
2017-12-03T01:43:52.973Z,973.25
2017-12-03T01:44:52.962Z,973.27
2017-12-03T01:45:52.953Z,973.25
2017-12-03T01:46:52.939Z,973.21
2017-12-03T01:47:52.929Z,973.21
2017-12-03T01:48:52.917Z,973.25
2017-12-03T01:49:52.906Z,973.19
2017-12-03T01:50:52.895Z,973.21
2017-12-03T01:51:52.884Z,973.19
2017-12-03T01:52:52.873Z,973.23
2017-12-03T01:53:52.961Z,973.23
2017-12-03T01:54:52.850Z,973.25
2017-12-03T01:55:52.840Z,973.2
2017-12-03T01:56:52.829Z,973.22
2017-12-03T01:57:52.816Z,973.21
2017-12-03T01:58:52.806Z,973.16
2017-12-03T01:59:52.795Z,973.18
2017-12-03T02:00:52.784Z,973.2
2017-12-03T02:01:52.772Z,973.17
2017-12-03T02:02:52.762Z,973.21
2017-12-03T02:03:52.750Z,973.22
2017-12-03T02:04:52.738Z,973.26
2017-12-03T02:05:52.727Z,973.23
2017-12-03T02:06:52.717Z,973.26
2017-12-03T02:07:52.705Z,973.24
2017-12-03T02:08:52.694Z,973.27
2017-12-03T02:09:52.681Z,973.28
2017-12-03T02:10:52.672Z,973.31
2017-12-03T02:11:52.661Z,973.33
2017-12-03T02:12:52.649Z,973.26
2017-12-03T02:13:52.637Z,973.25
2017-12-03T02:14:52.628Z,973.25
2017-12-03T02:15:52.614Z,973.27
2017-12-03T02:16:52.604Z,973.28
2017-12-03T02:17:52.594Z,973.3
2017-12-03T02:18:52.583Z,973.24
2017-12-03T02:19:52.570Z,973.24
2017-12-03T02:20:52.560Z,973.24
2017-12-03T02:21:52.649Z,973.23
2017-12-03T02:22:52.538Z,973.24
2017-12-03T02:23:52.525Z,973.28
2017-12-03T02:24:52.516Z,973.27
2017-12-03T02:25:52.504Z,973.26
2017-12-03T02:26:52.492Z,973.3
2017-12-03T02:27:52.481Z,973.28
2017-12-03T02:28:52.470Z,973.27
2017-12-03T02:29:52.610Z,973.3
2017-12-03T02:30:52.449Z,973.28
2017-12-03T02:31:52.436Z,973.27
2017-12-03T02:32:52.426Z,973.29
2017-12-03T02:33:52.415Z,973.3
2017-12-03T02:34:52.404Z,973.26
2017-12-03T02:35:52.394Z,973.28
2017-12-03T02:36:52.385Z,973.29
2017-12-03T02:37:52.375Z,973.33
2017-12-03T02:38:52.367Z,973.32
2017-12-03T02:39:52.356Z,973.28
2017-12-03T02:40:52.341Z,973.33
2017-12-03T02:41:52.331Z,973.29
2017-12-03T02:42:52.324Z,973.29
2017-12-03T02:43:52.304Z,973.32
2017-12-03T02:44:52.293Z,973.3
2017-12-03T02:45:52.280Z,973.31
2017-12-03T02:46:52.272Z,973.28
2017-12-03T02:47:52.262Z,973.29
2017-12-03T02:48:52.247Z,973.31
2017-12-03T02:49:52.237Z,973.32
2017-12-03T02:50:52.225Z,973.35
2017-12-03T02:51:52.258Z,973.36
2017-12-03T02:52:52.206Z,973.38
2017-12-03T02:53:52.191Z,973.38
2017-12-03T02:54:52.182Z,973.36
2017-12-03T02:55:52.171Z,973.38
2017-12-03T02:56:52.158Z,973.38
2017-12-03T02:57:52.147Z,973.39
2017-12-03T02:58:52.136Z,973.44
2017-12-03T02:59:52.274Z,973.43
2017-12-03T03:00:52.213Z,973.45
2017-12-03T03:01:52.103Z,973.47
2017-12-03T03:02:52.092Z,973.47
2017-12-03T03:03:52.079Z,973.49
2017-12-03T03:04:52.068Z,973.49
2017-12-03T03:05:52.058Z,973.47
2017-12-03T03:06:52.046Z,973.51
2017-12-03T03:07:52.034Z,973.49
2017-12-03T03:08:52.024Z,973.52
2017-12-03T03:09:52.014Z,973.55
2017-12-03T03:10:52.001Z,973.59
2017-12-03T03:11:51.989Z,973.62
2017-12-03T03:12:51.980Z,973.67
2017-12-03T03:13:51.968Z,973.63
2017-12-03T03:14:51.957Z,973.65
2017-12-03T03:15:51.948Z,973.64
2017-12-03T03:16:51.936Z,973.58
2017-12-03T03:17:51.923Z,973.6
2017-12-03T03:18:51.913Z,973.6
2017-12-03T03:19:51.903Z,973.58
2017-12-03T03:20:51.891Z,973.55
2017-12-03T03:21:51.879Z,973.58
2017-12-03T03:22:51.868Z,973.6
2017-12-03T03:23:51.856Z,973.57
2017-12-03T03:24:51.846Z,973.55
2017-12-03T03:25:51.834Z,973.58
2017-12-03T03:26:51.824Z,973.56
2017-12-03T03:27:51.812Z,973.58
2017-12-03T03:28:51.801Z,973.56
2017-12-03T03:29:51.790Z,973.59
2017-12-03T03:30:51.779Z,973.61
2017-12-03T03:31:51.768Z,973.61
2017-12-03T03:32:51.756Z,973.65
2017-12-03T03:33:51.747Z,973.63
2017-12-03T03:34:51.734Z,973.62
2017-12-03T03:35:51.723Z,973.63
2017-12-03T03:36:51.711Z,973.59
2017-12-03T03:37:51.700Z,973.65
2017-12-03T03:38:51.690Z,973.61
2017-12-03T03:39:51.678Z,973.61
2017-12-03T03:40:51.668Z,973.62
2017-12-03T03:41:51.655Z,973.65
2017-12-03T03:42:51.644Z,973.65
2017-12-03T03:43:51.632Z,973.65
2017-12-03T03:44:51.621Z,973.67
2017-12-03T03:45:51.611Z,973.65
2017-12-03T03:46:51.600Z,973.66
2017-12-03T03:47:51.588Z,973.63
2017-12-03T03:48:51.576Z,973.63
2017-12-03T03:49:51.565Z,973.68
2017-12-03T03:50:51.553Z,973.66
2017-12-03T03:51:51.542Z,973.68
2017-12-03T03:52:51.531Z,973.66
2017-12-03T03:53:51.522Z,973.68
2017-12-03T03:54:51.510Z,973.65
2017-12-03T03:55:51.499Z,973.67
2017-12-03T03:56:51.488Z,973.66
2017-12-03T03:57:51.475Z,973.66
2017-12-03T03:58:51.464Z,973.67
2017-12-03T03:59:51.453Z,973.66
2017-12-03T04:00:51.442Z,973.69
2017-12-03T04:01:51.430Z,973.71
2017-12-03T04:02:51.419Z,973.74
2017-12-03T04:03:51.408Z,973.71
2017-12-03T04:04:51.498Z,973.76
2017-12-03T04:05:51.386Z,973.74
2017-12-03T04:06:51.374Z,973.74
2017-12-03T04:07:51.366Z,973.71
2017-12-03T04:08:51.352Z,973.76
2017-12-03T04:09:51.342Z,973.72
2017-12-03T04:10:51.330Z,973.73
2017-12-03T04:11:51.321Z,973.72
2017-12-03T04:12:51.314Z,973.73
2017-12-03T04:13:51.298Z,973.7
2017-12-03T04:14:51.284Z,973.71
2017-12-03T04:15:51.273Z,973.72
2017-12-03T04:16:51.261Z,973.69
2017-12-03T04:17:51.250Z,973.73
2017-12-03T04:18:51.246Z,973.76
2017-12-03T04:19:51.228Z,973.77
2017-12-03T04:20:51.217Z,973.76
2017-12-03T04:21:51.206Z,973.74
2017-12-03T04:22:51.196Z,973.78
2017-12-03T04:23:51.183Z,973.74
2017-12-03T04:24:51.172Z,973.75
2017-12-03T04:25:51.161Z,973.74
2017-12-03T04:26:51.150Z,973.75
2017-12-03T04:27:51.138Z,973.75
2017-12-03T04:28:51.127Z,973.74
2017-12-03T04:29:51.116Z,973.76
2017-12-03T04:30:51.105Z,973.76
2017-12-03T04:31:51.094Z,973.77
2017-12-03T04:32:51.082Z,973.79
2017-12-03T04:33:51.071Z,973.79
2017-12-03T04:34:51.059Z,973.81
2017-12-03T04:35:51.049Z,973.85
2017-12-03T04:36:51.039Z,973.87
2017-12-03T04:37:51.026Z,973.9
2017-12-03T04:38:51.016Z,973.9
2017-12-03T04:39:51.003Z,973.92
2017-12-03T04:40:50.994Z,973.94
2017-12-03T04:41:50.982Z,973.92
2017-12-03T04:42:50.970Z,973.89
2017-12-03T04:43:50.958Z,973.94
2017-12-03T04:44:50.948Z,973.96
2017-12-03T04:45:50.935Z,973.97
2017-12-03T04:46:50.930Z,973.96
2017-12-03T04:47:50.915Z,973.97
2017-12-03T04:48:50.903Z,973.99
2017-12-03T04:49:50.892Z,973.98
2017-12-03T04:50:50.880Z,973.96
2017-12-03T04:51:50.870Z,973.98
2017-12-03T04:52:50.858Z,973.99
2017-12-03T04:53:50.853Z,974.01
2017-12-03T04:54:50.836Z,974
2017-12-03T04:55:50.926Z,974.06
2017-12-03T04:56:50.812Z,974.05
2017-12-03T04:57:50.802Z,974.08
2017-12-03T04:58:50.792Z,974.04
2017-12-03T04:59:50.780Z,974.02
2017-12-03T05:00:50.769Z,974.04
2017-12-03T05:01:50.757Z,974.03
2017-12-03T05:02:50.748Z,974.05
2017-12-03T05:03:50.735Z,974.02
2017-12-03T05:04:50.723Z,974.05
2017-12-03T05:05:50.713Z,974.06
2017-12-03T05:06:50.703Z,974.06
2017-12-03T05:07:50.691Z,974.08
2017-12-03T05:08:50.679Z,974.09
2017-12-03T05:09:50.668Z,974.07
2017-12-03T05:10:50.657Z,974.1
2017-12-03T05:11:50.645Z,974.1
2017-12-03T05:12:50.745Z,974.14
2017-12-03T05:13:50.623Z,974.15
2017-12-03T05:14:50.614Z,974.11
2017-12-03T05:15:50.602Z,974.11
2017-12-03T05:16:50.590Z,974.08
2017-12-03T05:17:50.679Z,974.1
2017-12-03T05:18:50.566Z,974.08
2017-12-03T05:19:50.556Z,974.13
2017-12-03T05:20:50.544Z,974.11
2017-12-03T05:21:50.534Z,974.12
2017-12-03T05:22:50.521Z,974.15
2017-12-03T05:23:50.510Z,974.14
2017-12-03T05:24:50.499Z,974.17
2017-12-03T05:25:50.588Z,974.15
2017-12-03T05:26:50.476Z,974.16
2017-12-03T05:27:50.465Z,974.18
2017-12-03T05:28:50.454Z,974.14
2017-12-03T05:29:50.443Z,974.16
2017-12-03T05:30:50.431Z,974.14
2017-12-03T05:31:50.570Z,974.16
2017-12-03T05:32:50.509Z,974.18
2017-12-03T05:33:50.397Z,974.17
2017-12-03T05:34:50.387Z,974.17
2017-12-03T05:35:50.376Z,974.19
2017-12-03T05:36:50.364Z,974.21
2017-12-03T05:37:50.354Z,974.19
2017-12-03T05:38:50.341Z,974.16
2017-12-03T05:39:50.330Z,974.21
2017-12-03T05:40:50.318Z,974.21
2017-12-03T05:41:50.308Z,974.23
2017-12-03T05:42:50.297Z,974.18
2017-12-03T05:43:50.286Z,974.19
2017-12-03T05:44:50.275Z,974.23
2017-12-03T05:45:50.263Z,974.21
2017-12-03T05:46:50.254Z,974.22
2017-12-03T05:47:50.239Z,974.24
2017-12-03T05:48:50.378Z,974.24
2017-12-03T05:49:50.219Z,974.29
2017-12-03T05:50:50.207Z,974.29
2017-12-03T05:51:50.201Z,974.27
2017-12-03T05:52:50.184Z,974.3
2017-12-03T05:53:50.173Z,974.29
2017-12-03T05:54:50.162Z,974.29
2017-12-03T05:55:50.149Z,974.33
2017-12-03T05:56:50.139Z,974.32
2017-12-03T05:57:50.129Z,974.35
2017-12-03T05:58:50.116Z,974.36
2017-12-03T05:59:50.106Z,974.36
2017-12-03T06:00:50.098Z,974.34
2017-12-03T06:01:50.085Z,974.32
2017-12-03T06:02:50.074Z,974.35
2017-12-03T06:03:50.063Z,974.29
2017-12-03T06:04:50.051Z,974.32
2017-12-03T06:05:50.041Z,974.35
2017-12-03T06:06:50.029Z,974.38
2017-12-03T06:07:50.017Z,974.41
2017-12-03T06:08:50.008Z,974.42
2017-12-03T06:09:49.995Z,974.41
2017-12-03T06:10:49.986Z,974.38
2017-12-03T06:11:49.973Z,974.39
2017-12-03T06:12:49.962Z,974.4
2017-12-03T06:13:50.051Z,974.41
2017-12-03T06:14:49.940Z,974.39
2017-12-03T06:15:49.927Z,974.37
2017-12-03T06:16:49.917Z,974.38
2017-12-03T06:17:49.905Z,974.38
2017-12-03T06:18:49.895Z,974.4
2017-12-03T06:19:49.886Z,974.38
2017-12-03T06:20:49.871Z,974.37
2017-12-03T06:21:49.861Z,974.38
2017-12-03T06:22:49.850Z,974.36
2017-12-03T06:23:49.838Z,974.38
2017-12-03T06:24:49.827Z,974.39
2017-12-03T06:25:49.815Z,974.43
2017-12-03T06:26:49.805Z,974.41
2017-12-03T06:27:49.794Z,974.45
2017-12-03T06:28:49.783Z,974.44
2017-12-03T06:29:49.772Z,974.42
2017-12-03T06:30:49.761Z,974.39
2017-12-03T06:31:49.749Z,974.37
2017-12-03T06:32:49.738Z,974.41
2017-12-03T06:33:49.727Z,974.4
2017-12-03T06:34:49.715Z,974.4
2017-12-03T06:35:49.704Z,974.42
2017-12-03T06:36:49.693Z,974.42
2017-12-03T06:37:49.682Z,974.46
2017-12-03T06:38:49.669Z,974.5
2017-12-03T06:39:49.657Z,974.47
2017-12-03T06:40:49.647Z,974.48
2017-12-03T06:41:49.638Z,974.48
2017-12-03T06:42:49.625Z,974.51
2017-12-03T06:43:49.614Z,974.57
2017-12-03T06:44:49.603Z,974.58
2017-12-03T06:45:49.591Z,974.6
2017-12-03T06:46:49.587Z,974.61
2017-12-03T06:47:49.572Z,974.67
2017-12-03T06:48:49.557Z,974.66
2017-12-03T06:49:49.551Z,974.7
2017-12-03T06:50:49.535Z,974.73
2017-12-03T06:51:49.523Z,974.74
2017-12-03T06:52:49.512Z,974.78
2017-12-03T06:53:49.508Z,974.8
2017-12-03T06:54:49.493Z,974.82
2017-12-03T06:55:49.479Z,974.83
2017-12-03T06:56:49.468Z,974.79
2017-12-03T06:57:49.455Z,974.81
2017-12-03T06:58:49.549Z,974.79
2017-12-03T06:59:49.435Z,974.81
2017-12-03T07:00:49.423Z,974.8
2017-12-03T07:01:49.411Z,974.78
2017-12-03T07:02:49.399Z,974.81
2017-12-03T07:03:49.390Z,974.78
2017-12-03T07:04:49.377Z,974.8
2017-12-03T07:05:49.369Z,974.79
2017-12-03T07:06:49.355Z,974.79
2017-12-03T07:07:49.344Z,974.8
2017-12-03T07:08:49.332Z,974.8
2017-12-03T07:09:49.321Z,974.79
2017-12-03T07:10:49.310Z,974.78
2017-12-03T07:11:49.299Z,974.76
2017-12-03T07:12:49.294Z,974.78
2017-12-03T07:13:49.275Z,974.79
2017-12-03T07:14:49.265Z,974.77
2017-12-03T07:15:49.253Z,974.77
2017-12-03T07:16:49.243Z,974.76
2017-12-03T07:17:49.232Z,974.72
2017-12-03T07:18:49.221Z,974.74
2017-12-03T07:19:49.208Z,974.74
2017-12-03T07:20:49.198Z,974.72
2017-12-03T07:21:49.186Z,974.68
2017-12-03T07:22:49.183Z,974.69
2017-12-03T07:23:49.164Z,974.72
2017-12-03T07:24:49.154Z,974.73
2017-12-03T07:25:49.142Z,974.74
2017-12-03T07:26:49.130Z,974.79
2017-12-03T07:27:49.125Z,974.82
2017-12-03T07:28:49.108Z,974.81
2017-12-03T07:29:49.121Z,974.79
2017-12-03T07:30:49.084Z,974.82
2017-12-03T07:31:49.075Z,974.8
2017-12-03T07:32:49.063Z,974.77
2017-12-03T07:33:49.051Z,974.79
2017-12-03T07:34:49.039Z,974.8
2017-12-03T07:35:49.130Z,974.79
2017-12-03T07:36:49.018Z,974.77
2017-12-03T07:37:49.106Z,974.74
2017-12-03T07:38:48.995Z,974.77
2017-12-03T07:39:48.985Z,974.81
2017-12-03T07:40:48.973Z,974.81
2017-12-03T07:41:48.962Z,974.82
2017-12-03T07:42:48.950Z,974.85
2017-12-03T07:43:49.044Z,974.87
2017-12-03T07:44:48.928Z,974.91
2017-12-03T07:45:48.917Z,974.89
2017-12-03T07:46:48.910Z,974.91
2017-12-03T07:47:48.894Z,974.9
2017-12-03T07:48:48.883Z,974.89
2017-12-03T07:49:48.873Z,974.86
2017-12-03T07:50:48.861Z,974.9
2017-12-03T07:51:48.849Z,974.93
2017-12-03T07:52:48.838Z,974.89
2017-12-03T07:53:48.828Z,974.93
2017-12-03T07:54:48.815Z,974.95
2017-12-03T07:55:48.804Z,974.94
2017-12-03T07:56:48.793Z,974.95
2017-12-03T07:57:48.781Z,974.94
2017-12-03T07:58:48.771Z,974.93
2017-12-03T07:59:48.758Z,974.95
2017-12-03T08:00:48.749Z,974.93
2017-12-03T08:01:48.737Z,974.95
2017-12-03T08:02:48.726Z,974.91
2017-12-03T08:03:48.714Z,974.91
2017-12-03T08:04:48.703Z,974.91
2017-12-03T08:05:48.693Z,974.95
2017-12-03T08:06:48.684Z,974.93
2017-12-03T08:07:48.671Z,974.96
2017-12-03T08:08:48.759Z,974.97
2017-12-03T08:09:48.647Z,974.99
2017-12-03T08:10:48.637Z,975.03
2017-12-03T08:11:48.631Z,975.03
2017-12-03T08:12:48.615Z,975.07
2017-12-03T08:13:48.604Z,975.04
2017-12-03T08:14:48.594Z,975.08
2017-12-03T08:15:48.581Z,975.05
2017-12-03T08:16:48.571Z,975.02
2017-12-03T08:17:48.558Z,975.06
2017-12-03T08:18:48.548Z,975.06
2017-12-03T08:19:48.537Z,975.06
2017-12-03T08:20:48.525Z,975.08
2017-12-03T08:21:48.514Z,975.11
2017-12-03T08:22:48.503Z,975.09
2017-12-03T08:23:48.492Z,975.09
2017-12-03T08:24:48.480Z,975.11
2017-12-03T08:25:48.469Z,975.09
2017-12-03T08:26:48.462Z,975.11
2017-12-03T08:27:48.447Z,975.12
2017-12-03T08:28:48.435Z,975.14
2017-12-03T08:29:48.424Z,975.15
2017-12-03T08:30:48.413Z,975.15
2017-12-03T08:31:48.502Z,975.19
2017-12-03T08:32:48.390Z,975.17
2017-12-03T08:33:48.530Z,975.19
2017-12-03T08:34:48.371Z,975.14
2017-12-03T08:35:48.356Z,975.16
2017-12-03T08:36:48.353Z,975.13
2017-12-03T08:37:48.336Z,975.14
2017-12-03T08:38:48.324Z,975.13
2017-12-03T08:39:48.313Z,975.16
2017-12-03T08:40:48.333Z,975.13
2017-12-03T08:41:48.291Z,975.13
2017-12-03T08:42:48.283Z,975.11
2017-12-03T08:43:48.267Z,975.12
2017-12-03T08:44:48.257Z,975.12
2017-12-03T08:45:48.245Z,975.12
2017-12-03T08:46:48.238Z,975.12
2017-12-03T08:47:48.223Z,975.13
2017-12-03T08:48:48.212Z,975.15
2017-12-03T08:49:48.201Z,975.12
2017-12-03T08:50:48.189Z,975.19
2017-12-03T08:51:48.178Z,975.15
2017-12-03T08:52:48.167Z,975.15
2017-12-03T08:53:48.158Z,975.13
2017-12-03T08:54:48.245Z,975.15
2017-12-03T08:55:48.135Z,975.2
2017-12-03T08:56:48.124Z,975.17
2017-12-03T08:57:48.111Z,975.21
2017-12-03T08:58:48.100Z,975.23
2017-12-03T08:59:48.090Z,975.24
2017-12-03T09:00:48.081Z,975.28
2017-12-03T09:01:48.066Z,975.3
2017-12-03T09:02:48.056Z,975.28
2017-12-03T09:03:48.046Z,975.3
2017-12-03T09:04:48.035Z,975.34
2017-12-03T09:05:48.172Z,975.34
2017-12-03T09:06:48.012Z,975.38
2017-12-03T09:07:48.002Z,975.4
2017-12-03T09:08:47.990Z,975.42
2017-12-03T09:09:47.979Z,975.41
2017-12-03T09:10:47.968Z,975.43
2017-12-03T09:11:47.957Z,975.44
2017-12-03T09:12:47.946Z,975.42
2017-12-03T09:13:47.935Z,975.46
2017-12-03T09:14:47.922Z,975.44
2017-12-03T09:15:47.912Z,975.47
2017-12-03T09:16:47.901Z,975.44
2017-12-03T09:17:47.890Z,975.51
2017-12-03T09:18:47.880Z,975.5
2017-12-03T09:19:47.867Z,975.49
2017-12-03T09:20:47.858Z,975.5
2017-12-03T09:21:47.846Z,975.5
2017-12-03T09:22:47.834Z,975.45
2017-12-03T09:23:47.824Z,975.47
2017-12-03T09:24:47.812Z,975.44
2017-12-03T09:25:47.801Z,975.49
2017-12-03T09:26:47.790Z,975.48
2017-12-03T09:27:47.780Z,975.5
2017-12-03T09:28:47.780Z,975.54
2017-12-03T09:29:47.757Z,975.5
2017-12-03T09:30:47.744Z,975.51
2017-12-03T09:31:47.735Z,975.51
2017-12-03T09:32:47.723Z,975.5
2017-12-03T09:33:47.712Z,975.5
2017-12-03T09:34:47.759Z,975.46
2017-12-03T09:35:47.691Z,975.48
2017-12-03T09:36:47.678Z,975.46
2017-12-03T09:37:47.668Z,975.48
2017-12-03T09:38:47.658Z,975.49
2017-12-03T09:39:47.647Z,975.49
2017-12-03T09:40:47.634Z,975.49
2017-12-03T09:41:47.623Z,975.47
2017-12-03T09:42:47.614Z,975.46
2017-12-03T09:43:47.602Z,975.47
2017-12-03T09:44:47.592Z,975.46
2017-12-03T09:45:47.580Z,975.43
2017-12-03T09:46:47.568Z,975.42
2017-12-03T09:47:47.557Z,975.41
2017-12-03T09:48:47.545Z,975.39
2017-12-03T09:49:47.534Z,975.39
2017-12-03T09:50:47.524Z,975.39
2017-12-03T09:51:47.518Z,975.36
2017-12-03T09:52:47.501Z,975.39
2017-12-03T09:53:47.491Z,975.44
2017-12-03T09:54:47.480Z,975.39
2017-12-03T09:55:47.470Z,975.42
2017-12-03T09:56:47.457Z,975.43
2017-12-03T09:57:47.446Z,975.41
2017-12-03T09:58:47.539Z,975.42
2017-12-03T09:59:47.424Z,975.41
2017-12-03T10:00:47.413Z,975.41
2017-12-03T10:01:47.403Z,975.43
2017-12-03T10:02:47.391Z,975.44
2017-12-03T10:03:47.379Z,975.45
2017-12-03T10:04:47.367Z,975.44
2017-12-03T10:05:47.357Z,975.43
2017-12-03T10:06:47.346Z,975.44
2017-12-03T10:07:47.336Z,975.41
2017-12-03T10:08:47.325Z,975.42
2017-12-03T10:09:47.313Z,975.43
2017-12-03T10:10:47.304Z,975.39
2017-12-03T10:11:47.291Z,975.38
2017-12-03T10:12:47.280Z,975.39
2017-12-03T10:13:47.269Z,975.37
2017-12-03T10:14:47.257Z,975.4
2017-12-03T10:15:47.248Z,975.44
2017-12-03T10:16:47.236Z,975.39
2017-12-03T10:17:47.226Z,975.41
2017-12-03T10:18:47.220Z,975.42
2017-12-03T10:19:47.204Z,975.38
2017-12-03T10:20:47.192Z,975.39
2017-12-03T10:21:47.179Z,975.45
2017-12-03T10:22:47.170Z,975.44
2017-12-03T10:23:47.158Z,975.5
2017-12-03T10:24:47.149Z,975.49
2017-12-03T10:25:47.136Z,975.5
2017-12-03T10:26:47.124Z,975.48
2017-12-03T10:27:47.115Z,975.49
2017-12-03T10:28:47.103Z,975.51
2017-12-03T10:29:47.092Z,975.48
2017-12-03T10:30:47.081Z,975.51
2017-12-03T10:31:47.069Z,975.52
2017-12-03T10:32:47.062Z,975.55
2017-12-03T10:33:47.047Z,975.5
2017-12-03T10:34:47.037Z,975.49
2017-12-03T10:35:47.027Z,975.49
2017-12-03T10:36:47.015Z,975.47
2017-12-03T10:37:47.005Z,975.47
2017-12-03T10:38:46.993Z,975.42
2017-12-03T10:39:46.988Z,975.42
2017-12-03T10:40:46.971Z,975.34
2017-12-03T10:41:46.960Z,975.29
2017-12-03T10:42:46.948Z,975.31
2017-12-03T10:43:46.937Z,975.28
2017-12-03T10:44:46.926Z,975.23
2017-12-03T10:45:46.922Z,975.19
2017-12-03T10:46:46.904Z,975.25
2017-12-03T10:47:46.900Z,975.23
2017-12-03T10:48:46.883Z,975.22
2017-12-03T10:49:46.873Z,975.26
2017-12-03T10:50:46.860Z,975.3
2017-12-03T10:51:46.848Z,975.28
2017-12-03T10:52:46.838Z,975.24
2017-12-03T10:53:46.827Z,975.27
2017-12-03T10:54:46.816Z,975.19
2017-12-03T10:55:46.807Z,975.19
2017-12-03T10:56:46.794Z,975.16
2017-12-03T10:57:46.784Z,975.2
2017-12-03T10:58:46.770Z,975.19
2017-12-03T10:59:46.761Z,975.15
2017-12-03T11:00:46.750Z,975.13
2017-12-03T11:01:46.739Z,975.11
2017-12-03T11:02:46.727Z,975.09
2017-12-03T11:03:46.716Z,975.1
2017-12-03T11:04:46.706Z,975.1
2017-12-03T11:05:46.700Z,975.08
2017-12-03T11:06:46.684Z,975.1
2017-12-03T11:07:46.673Z,975.11
2017-12-03T11:08:46.662Z,975.13
2017-12-03T11:09:46.650Z,975.1
2017-12-03T11:10:46.640Z,975.14
2017-12-03T11:11:46.663Z,975.12
2017-12-03T11:12:46.624Z,975.11
2017-12-03T11:13:46.707Z,975.14
2017-12-03T11:14:46.599Z,975.12
2017-12-03T11:15:46.586Z,975.15
2017-12-03T11:16:46.573Z,975.14
2017-12-03T11:17:46.563Z,975.13
2017-12-03T11:18:46.552Z,975.14
2017-12-03T11:19:46.542Z,975.11
2017-12-03T11:20:46.531Z,975.13
2017-12-03T11:21:46.519Z,975.13
2017-12-03T11:22:46.509Z,975.14
2017-12-03T11:23:46.497Z,975.13
2017-12-03T11:24:46.486Z,975.14
2017-12-03T11:25:46.476Z,975.12
2017-12-03T11:26:46.464Z,975.15
2017-12-03T11:27:46.453Z,975.12
2017-12-03T11:28:46.443Z,975.12
2017-12-03T11:29:46.432Z,975.14
2017-12-03T11:30:46.420Z,975.14
2017-12-03T11:31:46.411Z,975.18
2017-12-03T11:32:46.400Z,975.14
2017-12-03T11:33:46.389Z,975.13
2017-12-03T11:34:46.377Z,975.13
2017-12-03T11:35:46.367Z,975.1
2017-12-03T11:36:46.370Z,975.09
2017-12-03T11:37:46.349Z,975.14
2017-12-03T11:38:46.358Z,975.18
2017-12-03T11:39:46.363Z,975.15
2017-12-03T11:40:46.311Z,975.17
2017-12-03T11:41:46.301Z,975.13
2017-12-03T11:42:46.291Z,975.16
2017-12-03T11:43:46.279Z,975.18
2017-12-03T11:44:46.268Z,975.18
2017-12-03T11:45:46.256Z,975.2
2017-12-03T11:46:46.248Z,975.18
2017-12-03T11:47:46.334Z,975.19
2017-12-03T11:48:46.225Z,975.19
2017-12-03T11:49:46.212Z,975.16
2017-12-03T11:50:46.201Z,975.19
2017-12-03T11:51:46.192Z,975.2
2017-12-03T11:52:46.180Z,975.22
2017-12-03T11:53:46.170Z,975.19
2017-12-03T11:54:46.158Z,975.19
2017-12-03T11:55:46.151Z,975.2
2017-12-03T11:56:46.135Z,975.18
2017-12-03T11:57:46.125Z,975.19
2017-12-03T11:58:46.114Z,975.22
2017-12-03T11:59:46.103Z,975.19
2017-12-03T12:00:46.092Z,975.16
2017-12-03T12:01:46.081Z,975.12
2017-12-03T12:02:46.071Z,975.14
2017-12-03T12:03:46.060Z,975.14
2017-12-03T12:04:46.049Z,975.12
2017-12-03T12:05:46.037Z,975.12
2017-12-03T12:06:46.026Z,975.12
2017-12-03T12:07:46.016Z,975.09
2017-12-03T12:08:46.005Z,975.04
2017-12-03T12:09:45.996Z,975.09
2017-12-03T12:10:45.984Z,975.07
2017-12-03T12:11:45.972Z,975.08
2017-12-03T12:12:46.060Z,975.08
2017-12-03T12:13:45.950Z,975.07
2017-12-03T12:14:46.002Z,975.08
2017-12-03T12:15:45.980Z,975.04
2017-12-03T12:16:45.916Z,975.05
2017-12-03T12:17:45.946Z,975
2017-12-03T12:18:45.932Z,974.98
2017-12-03T12:19:45.909Z,974.97
2017-12-03T12:20:45.914Z,974.94
2017-12-03T12:21:45.897Z,974.94
2017-12-03T12:22:45.887Z,974.94
2017-12-03T12:23:45.875Z,974.9
2017-12-03T12:24:45.861Z,974.94
2017-12-03T12:25:46.097Z,974.97
2017-12-03T12:26:46.032Z,974.97
2017-12-03T12:27:45.882Z,975
2017-12-03T12:28:45.833Z,975
2017-12-03T12:29:45.983Z,975
2017-12-03T12:30:45.782Z,975.01
2017-12-03T12:31:45.987Z,975.01